createdAt,value
2017-10-17T00:15:18.000Z,72.8
2017-10-17T00:32:07.000Z,72.8
2017-10-17T00:48:55.000Z,72.8
2017-10-17T01:05:43.000Z,72.8
2017-10-17T01:22:32.000Z,72.8
2017-10-17T01:39:20.000Z,72.4
2017-10-17T01:56:08.000Z,72.4
2017-10-17T02:12:56.000Z,72.4
2017-10-17T02:29:44.000Z,71.6
2017-10-17T02:46:32.000Z,71.6
2017-10-17T03:03:21.000Z,71.6
2017-10-17T03:20:09.000Z,71.6
2017-10-17T03:36:56.000Z,71.2
2017-10-17T03:53:44.000Z,71.2
2017-10-17T04:10:32.000Z,71.2
2017-10-17T04:27:21.000Z,71.2
2017-10-17T04:44:08.000Z,70.8
2017-10-17T05:00:55.000Z,70.8
2017-10-17T05:17:43.000Z,70.8
2017-10-17T05:34:31.000Z,70.8
2017-10-17T05:51:19.000Z,70.8
2017-10-17T06:08:07.000Z,70.8
2017-10-17T06:24:55.000Z,70.8
2017-10-17T06:41:42.000Z,70.4
2017-10-17T06:58:30.000Z,70.4
2017-10-17T07:15:18.000Z,70.4
2017-10-17T07:32:06.000Z,70.4
2017-10-17T07:48:53.000Z,70.4
2017-10-17T08:05:41.000Z,70
2017-10-17T08:22:30.000Z,70
2017-10-17T08:39:18.000Z,70
2017-10-17T08:56:05.000Z,70
2017-10-17T09:12:53.000Z,70
2017-10-17T09:29:41.000Z,70
2017-10-17T09:46:29.000Z,69.6
2017-10-17T10:03:17.000Z,69.6
2017-10-17T10:20:06.000Z,69.6
2017-10-17T10:36:55.000Z,69.6
2017-10-17T10:53:43.000Z,69.2
2017-10-17T11:10:32.000Z,69.2
2017-10-17T11:27:20.000Z,69.2
2017-10-17T11:44:08.000Z,68.8
2017-10-17T12:00:57.000Z,68.8
2017-10-17T12:17:47.000Z,68.4
2017-10-17T12:34:36.000Z,68.8
2017-10-17T12:51:25.000Z,68
2017-10-17T13:08:13.000Z,68
2017-10-17T13:25:03.000Z,68
2017-10-17T13:41:52.000Z,68
2017-10-17T13:58:41.000Z,68.8
2017-10-17T14:15:30.000Z,68.8
2017-10-17T14:32:19.000Z,68.4
2017-10-17T14:49:08.000Z,69.2
2017-10-17T15:05:58.000Z,70
2017-10-17T15:22:47.000Z,70.4
2017-10-17T15:39:35.000Z,70.4
2017-10-17T15:56:24.000Z,71.2
2017-10-17T16:13:13.000Z,72
2017-10-17T16:30:02.000Z,72.4
2017-10-17T16:46:52.000Z,72.4
2017-10-17T17:03:41.000Z,72.8
2017-10-17T17:20:30.000Z,72.8
2017-10-17T17:37:18.000Z,72.4
2017-10-17T17:54:06.000Z,72.8
2017-10-17T18:10:55.000Z,72.4
2017-10-17T18:27:43.000Z,72.8
2017-10-17T18:44:31.000Z,72.8
2017-10-17T19:01:19.000Z,73.6
2017-10-17T19:18:08.000Z,74.4
2017-10-17T19:34:55.000Z,74.8
2017-10-17T19:51:43.000Z,75.2
2017-10-17T20:08:30.000Z,75.2
2017-10-17T20:25:19.000Z,75.6
2017-10-17T20:42:06.000Z,76
2017-10-17T20:58:54.000Z,76.8
2017-10-17T21:15:41.000Z,76.8
2017-10-17T21:32:29.000Z,76.8
2017-10-17T21:49:16.000Z,76.8
2017-10-17T22:06:03.000Z,76.8
2017-10-17T22:22:50.000Z,76.8
2017-10-17T22:39:38.000Z,76.4
2017-10-17T22:56:25.000Z,75.6
2017-10-17T23:13:13.000Z,75.6
2017-10-17T23:30:00.000Z,75.6
2017-10-17T23:46:47.000Z,75.6
